createdAt,value
2022-08-17T00:01:27.239Z,37.45
2022-08-17T00:03:54.990Z,36.05
2022-08-17T00:06:28.563Z,36.10
2022-08-17T00:09:04.311Z,37.10
2022-08-17T00:11:40.274Z,36.53
2022-08-17T00:14:18.870Z,37.58
2022-08-17T00:16:56.869Z,35.92
2022-08-17T00:19:27.484Z,37.72
2022-08-17T00:22:31.610Z,37.50
2022-08-17T00:24:47.783Z,38.63
2022-08-17T00:27:15.022Z,36.70
2022-08-17T00:29:42.269Z,35.92
2022-08-17T00:33:11.612Z,37.05
2022-08-17T00:34:57.651Z,39.58
2022-08-17T00:37:24.991Z,39.05
2022-08-17T00:39:52.386Z,36.63
2022-08-17T00:42:20.422Z,38.05
2022-08-17T00:44:47.991Z,35.78
2022-08-17T00:47:15.292Z,37.50
2022-08-17T00:49:42.606Z,38.70
2022-08-17T00:52:21.628Z,36.97
2022-08-17T00:54:54.832Z,35.28
2022-08-17T00:57:35.028Z,35.72
2022-08-17T01:00:14.795Z,35.20
2022-08-17T01:02:46.859Z,39.13
2022-08-17T01:05:25.643Z,39.38
2022-08-17T01:07:54.943Z,39.85
2022-08-17T01:10:59.260Z,40.65
2022-08-17T01:13:41.289Z,46.72
2022-08-17T01:16:26.106Z,41.95
2022-08-17T01:19:03.203Z,40.95
2022-08-17T01:21:53.130Z,39.08
2022-08-17T01:24:20.331Z,36.08
2022-08-17T01:26:48.550Z,38.47
2022-08-17T01:29:16.774Z,37.05
2022-08-17T01:31:55.598Z,36.45
2022-08-17T01:34:24.975Z,39.05
2022-08-17T01:37:11.773Z,39.15
2022-08-17T01:39:55.900Z,39.17
2022-08-17T01:42:42.320Z,36.28
2022-08-17T01:45:26.691Z,38.55
2022-08-17T01:47:56.303Z,36.83
2022-08-17T01:50:37.895Z,37.00
2022-08-17T01:53:21.213Z,36.13
2022-08-17T01:56:02.795Z,36.80
2022-08-17T01:58:30.241Z,36.17
2022-08-17T02:01:01.219Z,37.95
2022-08-17T02:03:31.499Z,38.00
2022-08-17T02:05:58.972Z,38.42
2022-08-17T02:08:37.123Z,36.90
2022-08-17T02:11:19.679Z,38.17
2022-08-17T02:13:57.885Z,39.25
2022-08-17T02:16:38.381Z,37.47
2022-08-17T02:19:10.749Z,36.90
2022-08-17T02:21:41.174Z,36.38
2022-08-17T02:24:58.160Z,37.35
2022-08-17T02:27:07.442Z,39.53
2022-08-17T02:29:34.769Z,39.80
2022-08-17T02:32:02.639Z,38.22
2022-08-17T02:34:30.076Z,37.95
2022-08-17T02:36:57.551Z,38.25
2022-08-17T02:39:24.866Z,36.97
2022-08-17T02:42:02.749Z,34.80
2022-08-17T02:44:38.932Z,36.90
2022-08-17T02:47:10.312Z,36.05
2022-08-17T02:49:38.211Z,35.50
2022-08-17T02:52:08.143Z,36.70
2022-08-17T02:54:41.702Z,35.85
2022-08-17T02:57:11.193Z,36.38
2022-08-17T02:59:44.258Z,34.40
2022-08-17T03:02:15.726Z,34.95
2022-08-17T03:04:43.218Z,36.88
2022-08-17T03:07:10.547Z,35.10
2022-08-17T03:09:37.951Z,34.38
2022-08-17T03:12:13.742Z,37.67
2022-08-17T03:14:43.240Z,33.30
2022-08-17T03:17:17.018Z,32.38
2022-08-17T03:19:45.162Z,33.45
2022-08-17T03:22:36.247Z,38.22
2022-08-17T03:24:59.710Z,36.83
2022-08-17T03:27:27.003Z,34.83
2022-08-17T03:29:55.135Z,35.63
2022-08-17T03:32:22.510Z,34.63
2022-08-17T03:34:50.024Z,35.17
2022-08-17T03:37:17.354Z,35.25
2022-08-17T03:39:44.691Z,35.22
2022-08-17T03:42:32.095Z,36.17
2022-08-17T03:45:02.301Z,37.42
2022-08-17T03:47:48.287Z,38.05
2022-08-17T03:50:36.851Z,33.28
2022-08-17T03:53:30.268Z,39.67
2022-08-17T03:56:24.436Z,36.20
2022-08-17T03:58:51.708Z,37.25
2022-08-17T04:01:19.210Z,37.03
2022-08-17T04:03:46.510Z,42.17
2022-08-17T04:06:15.170Z,41.85
2022-08-17T04:08:42.462Z,40.72
2022-08-17T04:11:10.467Z,41.72
2022-08-17T04:13:37.855Z,43.45
2022-08-17T04:16:05.625Z,42.92
2022-08-17T04:18:32.916Z,44.40
2022-08-17T04:21:01.092Z,48.00
2022-08-17T04:23:32.953Z,45.95
2022-08-17T04:26:04.372Z,43.05
2022-08-17T04:28:31.658Z,42.50
2022-08-17T04:30:59.709Z,45.97
2022-08-17T04:33:30.002Z,45.55
2022-08-17T04:36:03.265Z,41.90
2022-08-17T04:38:39.610Z,43.10
2022-08-17T04:41:27.174Z,46.25
2022-08-17T04:43:58.251Z,42.60
2022-08-17T04:46:36.412Z,45.90
2022-08-17T04:49:11.541Z,44.38
2022-08-17T04:51:56.820Z,40.97
2022-08-17T04:54:28.627Z,40.15
2022-08-17T04:56:56.756Z,40.65
2022-08-17T04:59:26.795Z,37.72
2022-08-17T05:01:54.691Z,40.00
2022-08-17T05:04:34.121Z,38.45
2022-08-17T05:07:04.567Z,39.83
2022-08-17T05:09:32.597Z,38.03
2022-08-17T05:12:04.323Z,35.38
2022-08-17T05:14:33.315Z,36.80
2022-08-17T05:17:07.046Z,36.55
2022-08-17T05:19:37.416Z,38.72
2022-08-17T05:22:06.533Z,35.45
2022-08-17T05:24:42.920Z,35.97
2022-08-17T05:27:18.878Z,33.47
2022-08-17T05:29:46.603Z,36.47
2022-08-17T05:32:39.480Z,35.85
2022-08-17T05:35:01.872Z,34.78
2022-08-17T05:37:29.225Z,33.90
2022-08-17T05:39:56.741Z,32.63
2022-08-17T05:42:24.167Z,35.38
2022-08-17T05:44:51.517Z,35.63
2022-08-17T05:47:19.093Z,36.55
2022-08-17T05:49:49.017Z,34.85
2022-08-17T05:53:02.916Z,34.08
2022-08-17T05:56:10.912Z,33.65
2022-08-17T05:59:29.087Z,33.55
2022-08-17T06:02:17.833Z,34.17
2022-08-17T06:05:43.787Z,35.05
2022-08-17T06:08:56.811Z,32.60
2022-08-17T06:12:27.895Z,30.20
2022-08-17T06:15:01.835Z,33.45
2022-08-17T06:17:31.123Z,36.53
2022-08-17T06:20:08.226Z,34.72
2022-08-17T06:22:49.544Z,34.85
2022-08-17T06:25:51.350Z,33.13
2022-08-17T06:28:46.806Z,32.80
2022-08-17T06:31:33.523Z,34.33
2022-08-17T06:34:09.099Z,32.25
2022-08-17T06:37:15.286Z,31.60
2022-08-17T06:40:39.972Z,33.35
2022-08-17T06:44:49.866Z,32.20
2022-08-17T06:47:29.368Z,32.38
2022-08-17T06:50:20.499Z,32.00
2022-08-17T06:53:36.464Z,30.58
2022-08-17T06:56:13.659Z,33.92
2022-08-17T06:58:44.970Z,32.03
2022-08-17T07:01:25.129Z,33.45
2022-08-17T07:04:11.564Z,32.65
2022-08-17T07:07:00.563Z,32.38
2022-08-17T07:09:38.646Z,31.70
2022-08-17T07:12:20.019Z,30.55
2022-08-17T07:15:41.839Z,30.45
2022-08-17T07:18:10.866Z,31.05
2022-08-17T07:20:48.012Z,30.27
2022-08-17T07:24:03.031Z,29.27
2022-08-17T07:26:30.390Z,27.70
2022-08-17T07:29:01.734Z,31.02
2022-08-17T07:31:33.504Z,29.98
2022-08-17T07:34:14.617Z,28.98
2022-08-17T07:36:43.105Z,25.65
2022-08-17T07:39:11.574Z,29.67
2022-08-17T07:41:57.491Z,31.90
2022-08-17T07:44:27.705Z,28.52
2022-08-17T07:47:15.112Z,29.85
2022-08-17T07:49:46.264Z,28.30
2022-08-17T07:52:50.372Z,29.77
2022-08-17T07:55:34.911Z,30.40
2022-08-17T07:58:03.401Z,25.65
2022-08-17T08:00:33.068Z,28.17
2022-08-17T08:03:20.302Z,30.45
2022-08-17T08:06:00.190Z,31.33
2022-08-17T08:08:40.721Z,29.02
2022-08-17T08:11:15.448Z,28.20
2022-08-17T08:13:45.567Z,26.17
2022-08-17T08:16:31.471Z,27.67
2022-08-17T08:19:03.082Z,29.13
2022-08-17T08:21:51.330Z,31.60
2022-08-17T08:25:02.956Z,27.92
2022-08-17T08:28:27.258Z,29.60
2022-08-17T08:31:42.406Z,29.40
2022-08-17T08:35:02.905Z,31.60
2022-08-17T08:38:07.680Z,30.08
2022-08-17T08:41:16.326Z,31.65
2022-08-17T08:45:00.687Z,31.55
2022-08-17T08:48:45.929Z,30.58
2022-08-17T08:51:59.620Z,30.10
2022-08-17T08:54:59.874Z,33.30
2022-08-17T08:57:40.118Z,32.55
2022-08-17T09:00:19.114Z,33.10
2022-08-17T09:03:20.073Z,33.90
2022-08-17T09:06:40.201Z,32.03
2022-08-17T09:09:49.696Z,32.30
2022-08-17T09:12:43.762Z,31.42
2022-08-17T09:15:27.496Z,30.90
2022-08-17T09:18:59.210Z,33.83
2022-08-17T09:21:48.399Z,32.58
2022-08-17T09:24:49.217Z,34.05
2022-08-17T09:27:33.259Z,33.33
2022-08-17T09:30:09.785Z,33.40
2022-08-17T09:35:36.869Z,37.35
2022-08-17T09:38:28.024Z,37.35
2022-08-17T09:41:19.536Z,36.45
2022-08-17T09:44:39.314Z,35.00
2022-08-17T09:47:45.525Z,36.13
2022-08-17T09:51:05.299Z,33.88
2022-08-17T09:53:17.847Z,36.22
2022-08-17T09:56:43.793Z,37.28
2022-08-17T09:59:21.994Z,31.67
2022-08-17T10:02:25.653Z,32.40
2022-08-17T10:05:15.401Z,36.95
2022-08-17T10:08:24.402Z,33.50
2022-08-17T10:12:09.573Z,38.38
2022-08-17T10:15:13.922Z,35.05
2022-08-17T10:18:21.457Z,43.15
2022-08-17T10:21:29.862Z,40.45
2022-08-17T10:25:21.296Z,39.72
2022-08-17T10:27:52.669Z,38.45
2022-08-17T10:33:07.050Z,39.67
2022-08-17T10:36:10.199Z,39.25
2022-08-17T10:38:49.518Z,40.45
2022-08-17T10:41:43.488Z,43.55
2022-08-17T10:44:37.483Z,41.10
2022-08-17T10:47:15.448Z,40.25
2022-08-17T10:49:53.859Z,42.22
2022-08-17T10:52:25.050Z,47.13
2022-08-17T10:54:57.933Z,46.05
2022-08-17T10:57:32.235Z,48.70
2022-08-17T11:00:03.661Z,45.70
2022-08-17T11:02:54.762Z,42.80
2022-08-17T11:05:43.675Z,42.88
2022-08-17T11:08:59.621Z,48.90
2022-08-17T11:12:00.727Z,48.03
2022-08-17T11:15:14.134Z,47.85
2022-08-17T11:19:09.960Z,45.38
2022-08-17T11:22:16.278Z,50.47
2022-08-17T11:24:53.583Z,48.90
2022-08-17T11:27:33.982Z,44.83
2022-08-17T11:30:43.459Z,46.03
2022-08-17T11:33:44.902Z,51.45
2022-08-17T11:36:18.012Z,52.75
2022-08-17T11:39:26.999Z,51.65
2022-08-17T11:43:27.335Z,51.10
2022-08-17T11:46:23.679Z,46.13
2022-08-17T11:49:54.593Z,51.17
2022-08-17T11:52:47.017Z,49.72
2022-08-17T11:55:44.442Z,52.95
2022-08-17T12:01:06.174Z,49.08
2022-08-17T12:03:33.494Z,47.60
2022-08-17T12:06:10.861Z,47.95
2022-08-17T12:08:55.208Z,48.42
2022-08-17T12:12:13.319Z,50.38
2022-08-17T12:17:43.038Z,49.80
2022-08-17T12:20:24.025Z,52.58
2022-08-17T12:23:04.031Z,54.42
2022-08-17T12:26:02.902Z,49.60
2022-08-17T12:28:39.232Z,48.45
2022-08-17T12:31:16.777Z,50.15
2022-08-17T12:33:47.440Z,55.83
2022-08-17T12:36:24.725Z,52.15
2022-08-17T12:39:12.918Z,52.88
2022-08-17T12:41:48.214Z,56.85
2022-08-17T12:44:43.010Z,51.20
2022-08-17T12:47:22.535Z,49.67
2022-08-17T12:50:03.825Z,53.92
2022-08-17T12:52:33.093Z,48.35
2022-08-17T12:55:26.323Z,52.17
2022-08-17T12:58:00.919Z,49.33
2022-08-17T13:00:47.682Z,50.88
2022-08-17T13:03:35.698Z,47.30
2022-08-17T13:06:12.943Z,50.53
2022-08-17T13:08:48.080Z,49.35
2022-08-17T13:11:16.209Z,55.67
2022-08-17T13:13:54.149Z,53.35
2022-08-17T13:16:31.948Z,56.33
2022-08-17T13:19:16.815Z,55.00
2022-08-17T13:22:01.358Z,55.35
2022-08-17T13:24:38.269Z,53.00
2022-08-17T13:27:13.015Z,54.53
2022-08-17T13:29:51.358Z,55.13
2022-08-17T13:32:47.192Z,52.55
2022-08-17T13:35:49.915Z,51.03
2022-08-17T13:38:49.617Z,50.90
2022-08-17T13:41:55.402Z,52.97
2022-08-17T13:44:40.456Z,49.20
2022-08-17T13:47:21.880Z,47.85
2022-08-17T13:49:50.413Z,57.95
2022-08-17T13:52:39.556Z,53.28
2022-08-17T13:55:23.603Z,52.03
2022-08-17T13:58:03.984Z,55.08
2022-08-17T14:00:36.722Z,52.70
2022-08-17T14:03:05.696Z,51.83
2022-08-17T14:05:33.837Z,46.03
2022-08-17T14:08:06.861Z,48.38
2022-08-17T14:10:36.573Z,50.72
2022-08-17T14:13:07.395Z,48.20
2022-08-17T14:15:55.201Z,49.33
2022-08-17T14:18:52.022Z,51.03
2022-08-17T14:21:10.536Z,51.95
2022-08-17T14:23:38.456Z,51.10
2022-08-17T14:26:06.213Z,45.42
2022-08-17T14:28:33.518Z,52.05
2022-08-17T14:31:03.701Z,49.28
2022-08-17T14:33:31.056Z,52.42
2022-08-17T14:35:58.714Z,49.63
2022-08-17T14:38:26.159Z,48.67
2022-08-17T14:40:54.186Z,51.05
2022-08-17T14:43:21.539Z,52.85
2022-08-17T14:45:48.839Z,49.55
2022-08-17T14:48:16.202Z,48.15
2022-08-17T14:50:44.314Z,48.55
2022-08-17T14:53:16.254Z,48.33
2022-08-17T14:55:47.112Z,45.92
2022-08-17T14:58:15.984Z,45.45
2022-08-17T15:00:43.689Z,43.55
2022-08-17T15:03:11.802Z,51.50
2022-08-17T15:05:40.369Z,47.97
2022-08-17T15:08:08.087Z,49.47
2022-08-17T15:10:36.322Z,44.15
2022-08-17T15:13:04.132Z,44.83
2022-08-17T15:15:31.486Z,45.85
2022-08-17T15:18:00.399Z,47.45
2022-08-17T15:20:30.342Z,46.03
2022-08-17T15:22:59.418Z,49.20
2022-08-17T15:25:31.957Z,44.83
2022-08-17T15:28:01.131Z,43.30
2022-08-17T15:30:29.916Z,46.10
2022-08-17T15:33:00.629Z,45.80
2022-08-17T15:35:33.846Z,47.10
2022-08-17T15:38:12.065Z,47.55
2022-08-17T15:40:48.370Z,45.17
2022-08-17T15:43:32.651Z,49.30
2022-08-17T15:46:11.947Z,47.53
2022-08-17T15:48:43.441Z,48.35
2022-08-17T15:51:25.143Z,47.60
2022-08-17T15:54:04.234Z,47.78
2022-08-17T15:56:32.710Z,48.10
2022-08-17T15:59:00.384Z,46.15
2022-08-17T16:03:05.648Z,51.08
2022-08-17T16:04:30.233Z,54.53
2022-08-17T16:06:59.914Z,53.00
2022-08-17T16:09:27.875Z,62.47
2022-08-17T16:11:56.093Z,56.67
2022-08-17T16:14:33.933Z,57.08
2022-08-17T16:17:04.931Z,53.25
2022-08-17T16:19:52.584Z,58.80
2022-08-17T16:22:37.797Z,47.25
2022-08-17T16:25:18.745Z,53.97
2022-08-17T16:27:52.791Z,54.33
2022-08-17T16:30:26.182Z,50.28
2022-08-17T16:32:58.010Z,49.38
2022-08-17T16:35:27.355Z,52.55
2022-08-17T16:37:58.398Z,53.10
2022-08-17T16:40:33.100Z,52.05
2022-08-17T16:43:10.368Z,50.90
2022-08-17T16:45:40.353Z,50.55
2022-08-17T16:48:09.761Z,51.28
2022-08-17T16:50:37.580Z,51.30
2022-08-17T16:53:17.344Z,52.63
2022-08-17T16:55:48.119Z,53.03
2022-08-17T16:58:16.173Z,49.15
2022-08-17T17:00:45.657Z,56.05
2022-08-17T17:03:25.793Z,50.97
2022-08-17T17:06:46.838Z,54.22
2022-08-17T17:09:41.984Z,46.33
2022-08-17T17:12:19.214Z,50.83
2022-08-17T17:15:07.698Z,53.80
2022-08-17T17:17:39.534Z,51.30
2022-08-17T17:20:37.902Z,50.75
2022-08-17T17:23:09.439Z,51.13
2022-08-17T17:26:02.462Z,57.30
2022-08-17T17:29:07.961Z,54.53
2022-08-17T17:32:37.989Z,51.40
2022-08-17T17:35:43.529Z,52.30
2022-08-17T17:38:39.254Z,49.13
2022-08-17T17:41:46.860Z,51.38
2022-08-17T17:44:24.383Z,51.85
2022-08-17T17:46:58.737Z,50.22
2022-08-17T17:49:50.191Z,51.65
2022-08-17T17:53:04.142Z,53.08
2022-08-17T17:55:44.190Z,49.92
2022-08-17T17:58:47.778Z,52.70
2022-08-17T18:01:48.995Z,51.13
2022-08-17T18:04:48.401Z,51.45
2022-08-17T18:07:38.072Z,49.95
2022-08-17T18:10:56.394Z,52.40
2022-08-17T18:14:26.801Z,52.15
2022-08-17T18:17:00.452Z,49.05
2022-08-17T18:19:31.617Z,49.53
2022-08-17T18:22:15.152Z,52.78
2022-08-17T18:24:49.361Z,50.15
2022-08-17T18:27:40.517Z,53.33
2022-08-17T18:30:13.815Z,56.78
2022-08-17T18:32:46.499Z,53.75
2022-08-17T18:35:16.147Z,53.92
2022-08-17T18:37:51.508Z,50.47
2022-08-17T18:40:21.723Z,52.00
2022-08-17T18:43:02.827Z,50.88
2022-08-17T18:45:56.256Z,49.13
2022-08-17T18:48:52.739Z,51.40
2022-08-17T18:51:43.276Z,53.47
2022-08-17T18:54:19.057Z,54.55
2022-08-17T18:57:00.317Z,54.85
2022-08-17T18:59:50.015Z,52.50
2022-08-17T19:02:36.071Z,55.30
2022-08-17T19:06:28.278Z,54.30
2022-08-17T19:08:55.832Z,53.15
2022-08-17T19:11:34.134Z,53.67
2022-08-17T19:14:09.025Z,51.42
2022-08-17T19:16:53.281Z,54.63
2022-08-17T19:19:53.964Z,56.97
2022-08-17T19:22:59.084Z,53.17
2022-08-17T19:25:46.103Z,57.17
2022-08-17T19:28:21.629Z,53.72
2022-08-17T19:31:04.468Z,59.40
2022-08-17T19:33:32.480Z,54.38
2022-08-17T19:36:25.161Z,53.88
2022-08-17T19:39:18.306Z,56.30
2022-08-17T19:42:13.291Z,57.20
2022-08-17T19:45:19.331Z,59.42
2022-08-17T19:49:03.955Z,59.33
2022-08-17T19:51:43.864Z,58.25
2022-08-17T19:55:03.502Z,59.90
2022-08-17T19:58:02.259Z,63.42
2022-08-17T20:00:31.367Z,55.53
2022-08-17T20:03:08.888Z,60.08
2022-08-17T20:06:10.983Z,64.28
2022-08-17T20:09:23.967Z,66.97
2022-08-17T20:12:19.708Z,64.25
2022-08-17T20:14:58.416Z,61.17
2022-08-17T20:17:37.282Z,63.28
2022-08-17T20:20:47.024Z,60.60
2022-08-17T20:24:01.835Z,62.92
2022-08-17T20:27:14.448Z,63.33
2022-08-17T20:30:39.279Z,59.13
2022-08-17T20:33:40.676Z,63.88
2022-08-17T20:36:24.710Z,65.20
2022-08-17T20:38:58.988Z,68.75
2022-08-17T20:41:30.791Z,62.42
2022-08-17T20:43:58.738Z,68.13
2022-08-17T20:47:01.316Z,68.53
2022-08-17T20:49:44.609Z,60.83
2022-08-17T20:52:37.407Z,65.68
2022-08-17T20:55:05.625Z,65.53
2022-08-17T20:57:33.508Z,66.32
2022-08-17T21:00:19.187Z,68.00
2022-08-17T21:02:51.193Z,64.82
2022-08-17T21:05:59.777Z,61.03
2022-08-17T21:08:30.544Z,65.13
2022-08-17T21:11:01.147Z,70.22
2022-08-17T21:14:17.370Z,66.47
2022-08-17T21:17:29.649Z,65.30
2022-08-17T21:20:40.114Z,68.95
2022-08-17T21:23:57.824Z,64.88
2022-08-17T21:26:55.403Z,70.40
2022-08-17T21:29:32.874Z,68.80
2022-08-17T21:32:05.462Z,66.53
2022-08-17T21:34:43.937Z,65.95
2022-08-17T21:37:23.370Z,70.03
2022-08-17T21:40:23.650Z,70.97
2022-08-17T21:43:00.321Z,68.18
2022-08-17T21:45:41.626Z,68.50
2022-08-17T21:48:25.336Z,75.93
2022-08-17T21:51:20.597Z,68.40
2022-08-17T21:54:23.452Z,67.85
2022-08-17T21:56:51.231Z,68.57
2022-08-17T21:59:19.416Z,69.68
2022-08-17T22:02:34.920Z,70.32
2022-08-17T22:05:14.556Z,68.57
2022-08-17T22:08:02.222Z,71.30
2022-08-17T22:10:44.346Z,67.10
2022-08-17T22:13:22.487Z,70.53
2022-08-17T22:16:28.936Z,70.85
2022-08-17T22:18:59.323Z,69.40
2022-08-17T22:21:27.307Z,69.22
2022-08-17T22:24:24.630Z,66.60
2022-08-17T22:27:10.967Z,68.90
2022-08-17T22:29:58.235Z,66.13
2022-08-17T22:32:44.681Z,69.05
2022-08-17T22:35:41.164Z,58.23
2022-08-17T22:38:20.505Z,61.75
2022-08-17T22:41:51.115Z,63.38
2022-08-17T22:44:24.146Z,66.20
2022-08-17T22:47:16.347Z,67.40
2022-08-17T22:50:21.312Z,71.40
2022-08-17T22:53:33.298Z,65.05
2022-08-17T22:56:19.267Z,67.78
2022-08-17T22:59:18.608Z,74.03
2022-08-17T23:02:25.139Z,61.58
2022-08-17T23:05:16.658Z,74.60
2022-08-17T23:07:47.495Z,70.53
2022-08-17T23:10:15.674Z,69.55
2022-08-17T23:12:43.020Z,72.70
2022-08-17T23:15:17.649Z,68.82
2022-08-17T23:17:45.465Z,67.65
2022-08-17T23:20:17.522Z,73.28
2022-08-17T23:22:52.527Z,72.80
2022-08-17T23:25:32.371Z,67.63
2022-08-17T23:28:02.496Z,69.47
2022-08-17T23:30:35.593Z,69.78
2022-08-17T23:33:29.951Z,62.60
2022-08-17T23:35:58.864Z,64.00
2022-08-17T23:38:27.640Z,68.07
2022-08-17T23:41:00.011Z,66.65
2022-08-17T23:43:31.372Z,59.65
2022-08-17T23:46:03.655Z,62.75
2022-08-17T23:48:35.699Z,58.58
2022-08-17T23:51:22.619Z,60.38
2022-08-17T23:54:11.636Z,59.30
2022-08-17T23:56:46.697Z,51.40
2022-08-17T23:59:23.978Z,58.70
